createdAt,value
2023-04-23T00:01:07.494Z,63.67
2023-04-23T00:03:44.872Z,63.61
2023-04-23T00:06:18.990Z,63.61
2023-04-23T00:08:53.510Z,63.77
2023-04-23T00:11:26.574Z,63.84
2023-04-23T00:13:59.785Z,63.93
2023-04-23T00:16:33.435Z,63.78
2023-04-23T00:19:05.842Z,63.79
2023-04-23T00:21:38.263Z,63.89
2023-04-23T00:24:10.911Z,63.90
2023-04-23T00:26:43.317Z,64.04
2023-04-23T00:29:15.756Z,64.09
2023-04-23T00:31:48.283Z,63.99
2023-04-23T00:34:20.735Z,64.05
2023-04-23T00:36:53.073Z,63.94
2023-04-23T00:39:25.612Z,64.24
2023-04-23T00:41:59.239Z,64.22
2023-04-23T00:44:31.848Z,64.22
2023-04-23T00:47:04.513Z,64.06
2023-04-23T00:49:37.582Z,64.36
2023-04-23T00:52:09.990Z,64.26
2023-04-23T00:54:42.715Z,64.31
2023-04-23T00:57:15.643Z,64.16
2023-04-23T00:59:48.314Z,64.20
2023-04-23T01:02:23.048Z,64.31
2023-04-23T01:04:56.029Z,64.29
2023-04-23T01:07:29.246Z,64.36
2023-04-23T01:10:01.614Z,64.37
2023-04-23T01:12:34.870Z,64.40
2023-04-23T01:15:09.281Z,64.48
2023-04-23T01:17:41.707Z,64.48
2023-04-23T01:20:14.617Z,64.38
2023-04-23T01:22:47.085Z,64.61
2023-04-23T01:25:19.556Z,64.52
2023-04-23T01:27:51.992Z,64.65
2023-04-23T01:30:25.080Z,64.64
2023-04-23T01:32:59.615Z,64.65
2023-04-23T01:35:32.205Z,64.59
2023-04-23T01:38:07.157Z,64.69
2023-04-23T01:40:39.814Z,64.76
2023-04-23T01:43:12.167Z,64.86
2023-04-23T01:45:44.854Z,64.62
2023-04-23T01:48:17.219Z,64.70
2023-04-23T01:50:49.745Z,64.87
2023-04-23T01:53:22.099Z,64.87
2023-04-23T01:55:57.133Z,64.83
2023-04-23T01:58:29.598Z,64.78
2023-04-23T02:01:01.930Z,64.81
2023-04-23T02:03:35.171Z,64.56
2023-04-23T02:06:08.441Z,64.56
2023-04-23T02:08:41.342Z,64.82
2023-04-23T02:11:13.652Z,64.85
2023-04-23T02:13:46.060Z,64.92
2023-04-23T02:16:19.871Z,65.04
2023-04-23T02:18:52.393Z,65.11
2023-04-23T02:21:26.458Z,65.22
2023-04-23T02:23:59.037Z,65.22
2023-04-23T02:26:31.501Z,65.20
2023-04-23T02:29:03.995Z,65.11
2023-04-23T02:31:36.537Z,65.17
2023-04-23T02:34:08.968Z,65.36
2023-04-23T02:36:41.382Z,65.17
2023-04-23T02:39:13.712Z,65.07
2023-04-23T02:41:46.158Z,65.20
2023-04-23T02:44:18.537Z,65.20
2023-04-23T02:46:50.942Z,65.33
2023-04-23T02:49:23.359Z,65.27
2023-04-23T02:51:55.830Z,65.28
2023-04-23T02:54:28.199Z,65.49
2023-04-23T02:57:01.933Z,65.37
2023-04-23T02:59:34.397Z,65.33
2023-04-23T03:02:06.790Z,65.49
2023-04-23T03:04:40.027Z,65.54
2023-04-23T03:07:13.477Z,65.45
2023-04-23T03:09:45.812Z,65.52
2023-04-23T03:12:18.501Z,65.64
2023-04-23T03:14:50.980Z,65.57
2023-04-23T03:17:23.374Z,65.56
2023-04-23T03:19:55.938Z,65.63
2023-04-23T03:22:28.309Z,65.57
2023-04-23T03:25:00.823Z,65.69
2023-04-23T03:27:33.099Z,65.75
2023-04-23T03:30:08.175Z,65.79
2023-04-23T03:32:41.130Z,65.71
2023-04-23T03:35:13.691Z,65.79
2023-04-23T03:37:46.037Z,65.68
2023-04-23T03:40:18.472Z,65.83
2023-04-23T03:42:50.971Z,65.72
2023-04-23T03:45:23.446Z,65.68
2023-04-23T03:47:56.025Z,65.90
2023-04-23T03:50:28.250Z,66.01
2023-04-23T03:53:00.645Z,66.14
2023-04-23T03:55:33.036Z,66.14
2023-04-23T03:58:05.805Z,66.16
2023-04-23T04:00:38.147Z,66.13
2023-04-23T04:03:10.599Z,66.25
2023-04-23T04:05:43.279Z,66.32
2023-04-23T04:08:15.571Z,66.32
2023-04-23T04:10:48.168Z,66.43
2023-04-23T04:13:20.531Z,66.44
2023-04-23T04:15:52.957Z,66.36
2023-04-23T04:18:26.007Z,66.46
2023-04-23T04:20:58.409Z,66.52
2023-04-23T04:23:31.242Z,66.48
2023-04-23T04:26:05.004Z,66.47
2023-04-23T04:28:37.665Z,66.50
2023-04-23T04:31:10.529Z,66.59
2023-04-23T04:33:43.442Z,66.54
2023-04-23T04:36:15.710Z,66.57
2023-04-23T04:38:48.077Z,66.69
2023-04-23T04:41:21.876Z,66.72
2023-04-23T04:43:54.762Z,66.72
2023-04-23T04:46:29.481Z,66.67
2023-04-23T04:49:01.959Z,66.72
2023-04-23T04:51:34.335Z,66.80
2023-04-23T04:54:07.436Z,66.78
2023-04-23T04:56:39.778Z,66.72
2023-04-23T04:59:12.226Z,66.89
2023-04-23T05:01:45.581Z,66.75
2023-04-23T05:04:18.631Z,66.83
2023-04-23T05:06:51.241Z,66.89
2023-04-23T05:09:23.611Z,66.90
2023-04-23T05:11:56.003Z,66.91
2023-04-23T05:14:29.077Z,66.93
2023-04-23T05:17:01.492Z,66.99
2023-04-23T05:19:33.955Z,66.92
2023-04-23T05:22:06.514Z,66.80
2023-04-23T05:24:39.103Z,66.73
2023-04-23T05:27:11.561Z,66.67
2023-04-23T05:29:43.960Z,66.71
2023-04-23T05:32:16.525Z,66.78
2023-04-23T05:34:48.943Z,66.62
2023-04-23T05:37:21.178Z,66.51
2023-04-23T05:39:53.495Z,66.60
2023-04-23T05:42:26.190Z,66.60
2023-04-23T05:44:58.555Z,66.38
2023-04-23T05:47:31.895Z,66.47
2023-04-23T05:50:04.311Z,66.34
2023-04-23T05:52:37.667Z,66.43
2023-04-23T05:55:12.311Z,66.20
2023-04-23T05:57:44.810Z,66.35
2023-04-23T06:00:18.210Z,66.25
2023-04-23T06:02:50.662Z,66.28
2023-04-23T06:05:23.594Z,66.18
2023-04-23T06:07:56.350Z,65.98
2023-04-23T06:10:28.865Z,65.89
2023-04-23T06:13:01.331Z,66.02
2023-04-23T06:15:36.730Z,65.85
2023-04-23T06:18:10.598Z,65.84
2023-04-23T06:20:43.100Z,65.64
2023-04-23T06:23:15.989Z,65.60
2023-04-23T06:25:48.389Z,65.76
2023-04-23T06:28:20.800Z,65.78
2023-04-23T06:30:53.681Z,65.56
2023-04-23T06:33:25.984Z,65.47
2023-04-23T06:35:58.626Z,65.30
2023-04-23T06:38:31.010Z,65.13
2023-04-23T06:41:04.308Z,65.04
2023-04-23T06:43:36.667Z,64.80
2023-04-23T06:46:09.229Z,64.52
2023-04-23T06:48:41.676Z,64.01
2023-04-23T06:51:14.179Z,63.99
2023-04-23T06:53:46.463Z,63.69
2023-04-23T06:56:18.889Z,62.60
2023-04-23T06:58:51.345Z,61.74
2023-04-23T07:01:23.808Z,61.90
2023-04-23T07:03:56.181Z,61.30
2023-04-23T07:06:29.203Z,61.40
2023-04-23T07:09:01.452Z,60.60
2023-04-23T07:11:35.247Z,60.10
2023-04-23T07:14:07.758Z,58.85
2023-04-23T07:16:40.373Z,59.25
2023-04-23T07:19:12.815Z,59.24
2023-04-23T07:21:45.294Z,58.75
2023-04-23T07:24:19.002Z,58.63
2023-04-23T07:26:51.426Z,58.77
2023-04-23T07:29:23.993Z,58.08
2023-04-23T07:31:56.511Z,57.58
2023-04-23T07:34:28.908Z,57.58
2023-04-23T07:37:01.201Z,56.99
2023-04-23T07:39:33.688Z,57.07
2023-04-23T07:42:06.212Z,56.70
2023-04-23T07:44:38.652Z,56.05
2023-04-23T07:47:11.507Z,55.32
2023-04-23T07:49:43.989Z,55.45
2023-04-23T07:52:17.515Z,54.75
2023-04-23T07:54:50.373Z,54.49
2023-04-23T07:57:22.769Z,54.23
2023-04-23T07:59:55.195Z,54.01
2023-04-23T08:02:28.759Z,53.24
2023-04-23T08:05:01.484Z,53.55
2023-04-23T08:07:34.356Z,52.17
2023-04-23T08:10:07.763Z,51.58
2023-04-23T08:12:40.069Z,51.12
2023-04-23T08:15:14.444Z,50.54
2023-04-23T08:17:47.115Z,50.77
2023-04-23T08:20:19.748Z,51.42
2023-04-23T08:22:53.801Z,51.42
2023-04-23T08:25:26.752Z,50.91
2023-04-23T08:27:59.219Z,50.40
2023-04-23T08:30:31.578Z,49.94
2023-04-23T08:33:04.016Z,50.30
2023-04-23T08:35:36.535Z,49.89
2023-04-23T08:38:09.501Z,49.65
2023-04-23T08:40:43.960Z,49.00
2023-04-23T08:43:20.930Z,47.66
2023-04-23T08:45:54.494Z,47.45
2023-04-23T08:48:26.900Z,47.67
2023-04-23T08:51:00.845Z,47.60
2023-04-23T08:53:33.911Z,47.11
2023-04-23T08:56:06.711Z,46.90
2023-04-23T08:58:39.157Z,46.85
2023-04-23T09:01:12.258Z,46.46
2023-04-23T09:03:46.216Z,46.34
2023-04-23T09:06:18.886Z,46.18
2023-04-23T09:08:53.215Z,45.84
2023-04-23T09:11:28.527Z,45.97
2023-04-23T09:14:01.334Z,45.75
2023-04-23T09:16:34.173Z,45.55
2023-04-23T09:19:06.842Z,45.33
2023-04-23T09:21:40.622Z,45.15
2023-04-23T09:24:14.944Z,44.88
2023-04-23T09:26:51.511Z,44.21
2023-04-23T09:29:25.026Z,43.83
2023-04-23T09:32:07.856Z,43.58
2023-04-23T09:34:41.409Z,43.60
2023-04-23T09:37:16.226Z,43.61
2023-04-23T09:39:48.710Z,43.58
2023-04-23T09:42:24.763Z,43.88
2023-04-23T09:45:04.503Z,43.61
2023-04-23T09:47:39.870Z,41.89
2023-04-23T09:50:13.186Z,42.05
2023-04-23T09:52:45.964Z,42.05
2023-04-23T09:55:28.348Z,42.12
2023-04-23T09:58:01.612Z,41.67
2023-04-23T10:00:38.267Z,41.65
2023-04-23T10:03:12.339Z,41.54
2023-04-23T10:06:00.518Z,41.42
2023-04-23T10:08:35.214Z,41.54
2023-04-23T10:11:19.953Z,41.40
2023-04-23T10:13:54.935Z,40.95
2023-04-23T10:16:33.000Z,40.71
2023-04-23T10:19:17.417Z,39.83
2023-04-23T10:21:56.213Z,39.96
2023-04-23T10:24:35.640Z,39.68
2023-04-23T10:27:24.918Z,39.80
2023-04-23T10:30:04.131Z,39.65
2023-04-23T10:32:38.851Z,39.68
2023-04-23T10:35:12.624Z,39.76
2023-04-23T10:37:46.581Z,39.42
2023-04-23T10:40:25.848Z,39.29
2023-04-23T10:42:58.918Z,39.24
2023-04-23T10:45:33.530Z,38.73
2023-04-23T10:48:08.744Z,38.24
2023-04-23T10:50:58.358Z,38.36
2023-04-23T10:53:37.331Z,37.95
2023-04-23T10:56:10.708Z,37.98
2023-04-23T10:58:55.315Z,37.95
2023-04-23T11:01:31.917Z,37.89
2023-04-23T11:04:24.385Z,37.80
2023-04-23T11:06:59.254Z,38.07
2023-04-23T11:09:43.287Z,37.75
2023-04-23T11:12:31.479Z,37.59
2023-04-23T11:15:17.042Z,37.50
2023-04-23T11:18:05.039Z,37.36
2023-04-23T11:20:38.826Z,37.37
2023-04-23T11:23:30.495Z,37.20
2023-04-23T11:26:04.392Z,37.05
2023-04-23T11:28:38.905Z,37.10
2023-04-23T11:31:12.583Z,37.24
2023-04-23T11:33:44.998Z,36.99
2023-04-23T11:36:17.551Z,36.72
2023-04-23T11:38:50.099Z,36.74
2023-04-23T11:41:27.066Z,36.87
2023-04-23T11:43:59.882Z,36.83
2023-04-23T11:46:32.305Z,36.79
2023-04-23T11:49:04.822Z,36.66
2023-04-23T11:51:42.281Z,36.46
2023-04-23T11:54:15.118Z,36.58
2023-04-23T11:56:47.436Z,36.74
2023-04-23T11:59:19.753Z,36.75
2023-04-23T12:01:55.813Z,36.62
2023-04-23T12:04:30.384Z,36.70
2023-04-23T12:07:10.189Z,36.44
2023-04-23T12:09:51.802Z,36.52
2023-04-23T12:12:24.134Z,36.15
2023-04-23T12:15:07.231Z,36.02
2023-04-23T12:17:39.671Z,36.02
2023-04-23T12:20:21.227Z,36.00
2023-04-23T12:22:53.723Z,36.11
2023-04-23T12:25:27.138Z,36.19
2023-04-23T12:28:02.719Z,36.08
2023-04-23T12:30:33.923Z,35.82
2023-04-23T12:33:09.506Z,35.79
2023-04-23T12:35:43.414Z,35.67
2023-04-23T12:38:26.895Z,35.62
2023-04-23T12:41:01.941Z,35.67
2023-04-23T12:43:34.458Z,35.98
2023-04-23T12:46:07.062Z,35.75
2023-04-23T12:48:39.401Z,35.72
2023-04-23T12:51:11.906Z,35.77
2023-04-23T12:53:44.428Z,35.98
2023-04-23T12:56:16.728Z,35.99
2023-04-23T12:58:49.376Z,35.64
2023-04-23T13:01:21.907Z,35.52
2023-04-23T13:03:54.429Z,35.53
2023-04-23T13:06:27.271Z,35.39
2023-04-23T13:09:02.372Z,35.18
2023-04-23T13:11:34.811Z,35.23
2023-04-23T13:14:07.718Z,35.26
2023-04-23T13:16:40.338Z,35.22
2023-04-23T13:19:13.470Z,35.08
2023-04-23T13:21:46.149Z,34.96
2023-04-23T13:24:18.628Z,35.08
2023-04-23T13:26:51.131Z,35.17
2023-04-23T13:29:23.580Z,34.99
2023-04-23T13:31:56.076Z,34.94
2023-04-23T13:34:28.553Z,34.91
2023-04-23T13:37:05.411Z,35.07
2023-04-23T13:39:39.935Z,35.01
2023-04-23T13:42:13.841Z,35.06
2023-04-23T13:44:46.150Z,34.88
2023-04-23T13:47:18.509Z,34.87
2023-04-23T13:49:51.546Z,34.59
2023-04-23T13:52:23.929Z,34.83
2023-04-23T13:54:57.314Z,34.74
2023-04-23T13:57:29.855Z,34.48
2023-04-23T14:00:02.536Z,34.50
2023-04-23T14:02:35.005Z,34.53
2023-04-23T14:05:09.101Z,34.43
2023-04-23T14:07:41.833Z,34.59
2023-04-23T14:10:15.251Z,34.81
2023-04-23T14:12:48.060Z,34.81
2023-04-23T14:15:20.533Z,34.90
2023-04-23T14:17:53.221Z,34.88
2023-04-23T14:20:25.953Z,34.94
2023-04-23T14:23:03.173Z,35.08
2023-04-23T14:25:47.890Z,34.98
2023-04-23T14:28:34.929Z,35.17
2023-04-23T14:31:07.499Z,35.20
2023-04-23T14:33:39.914Z,35.15
2023-04-23T14:36:12.531Z,35.42
2023-04-23T14:38:44.950Z,35.71
2023-04-23T14:41:17.348Z,35.98
2023-04-23T14:43:49.761Z,36.09
2023-04-23T14:46:22.167Z,36.50
2023-04-23T14:48:54.554Z,37.03
2023-04-23T14:51:27.452Z,37.37
2023-04-23T14:53:59.801Z,37.38
2023-04-23T14:56:32.193Z,37.34
2023-04-23T14:59:04.884Z,37.19
2023-04-23T15:01:37.412Z,37.19
2023-04-23T15:04:11.282Z,36.62
2023-04-23T15:06:43.948Z,36.53
2023-04-23T15:09:17.219Z,36.38
2023-04-23T15:11:49.942Z,36.45
2023-04-23T15:14:33.038Z,36.48
2023-04-23T15:17:06.182Z,36.49
2023-04-23T15:19:38.718Z,36.40
2023-04-23T15:22:11.121Z,36.58
2023-04-23T15:24:43.496Z,36.98
2023-04-23T15:27:16.257Z,36.97
2023-04-23T15:29:49.476Z,37.28
2023-04-23T15:32:21.930Z,37.26
2023-04-23T15:34:54.612Z,37.22
2023-04-23T15:37:28.185Z,36.91
2023-04-23T15:40:01.361Z,37.01
2023-04-23T15:42:33.933Z,37.37
2023-04-23T15:45:07.188Z,37.38
2023-04-23T15:47:40.095Z,37.45
2023-04-23T15:50:14.583Z,37.49
2023-04-23T15:52:48.100Z,37.75
2023-04-23T15:55:22.378Z,37.79
2023-04-23T15:57:54.722Z,37.49
2023-04-23T16:00:27.063Z,37.37
2023-04-23T16:03:01.178Z,37.51
2023-04-23T16:05:33.833Z,37.54
2023-04-23T16:08:06.381Z,37.74
2023-04-23T16:10:40.394Z,37.58
2023-04-23T16:13:12.947Z,37.87
2023-04-23T16:15:45.450Z,37.90
2023-04-23T16:18:17.889Z,38.19
2023-04-23T16:20:50.543Z,38.03
2023-04-23T16:23:23.012Z,38.04
2023-04-23T16:25:56.826Z,38.18
2023-04-23T16:28:29.476Z,37.99
2023-04-23T16:31:01.936Z,38.17
2023-04-23T16:33:34.276Z,37.99
2023-04-23T16:36:07.449Z,37.96
2023-04-23T16:38:39.737Z,37.92
2023-04-23T16:41:12.150Z,37.99
2023-04-23T16:43:44.456Z,38.18
2023-04-23T16:46:17.058Z,38.20
2023-04-23T16:48:49.522Z,38.26
2023-04-23T16:51:21.886Z,38.34
2023-04-23T16:53:56.168Z,38.38
2023-04-23T16:56:28.880Z,38.40
2023-04-23T16:59:01.981Z,38.74
2023-04-23T17:01:34.541Z,38.66
2023-04-23T17:04:07.156Z,38.54
2023-04-23T17:06:39.867Z,38.74
2023-04-23T17:09:12.305Z,38.68
2023-04-23T17:11:44.577Z,38.96
2023-04-23T17:14:16.973Z,39.08
2023-04-23T17:16:49.405Z,39.01
2023-04-23T17:19:21.734Z,39.09
2023-04-23T17:21:54.168Z,39.20
2023-04-23T17:24:26.702Z,39.35
2023-04-23T17:26:59.293Z,39.37
2023-04-23T17:29:31.630Z,39.49
2023-04-23T17:32:04.568Z,39.72
2023-04-23T17:34:38.028Z,39.75
2023-04-23T17:37:10.553Z,39.85
2023-04-23T17:39:42.897Z,39.99
2023-04-23T17:42:15.279Z,39.92
2023-04-23T17:44:47.621Z,39.96
2023-04-23T17:47:20.035Z,40.22
2023-04-23T17:49:52.571Z,40.21
2023-04-23T17:52:24.912Z,40.22
2023-04-23T17:54:57.825Z,40.28
2023-04-23T17:57:30.170Z,40.32
2023-04-23T18:00:09.745Z,40.45
2023-04-23T18:02:42.544Z,40.55
2023-04-23T18:05:16.216Z,40.64
2023-04-23T18:07:48.645Z,40.70
2023-04-23T18:10:21.005Z,40.62
2023-04-23T18:12:53.651Z,40.73
2023-04-23T18:15:29.009Z,40.92
2023-04-23T18:18:01.567Z,41.03
2023-04-23T18:20:35.678Z,41.23
2023-04-23T18:23:08.914Z,41.17
2023-04-23T18:25:44.185Z,41.42
2023-04-23T18:28:16.545Z,41.39
2023-04-23T18:30:48.974Z,41.36
2023-04-23T18:33:32.982Z,41.37
2023-04-23T18:36:14.990Z,41.58
2023-04-23T18:38:47.702Z,41.72
2023-04-23T18:41:20.055Z,41.77
2023-04-23T18:43:53.070Z,41.82
2023-04-23T18:46:25.473Z,41.81
2023-04-23T18:49:05.882Z,41.86
2023-04-23T18:51:46.099Z,41.89
2023-04-23T18:54:18.384Z,42.01
2023-04-23T18:56:51.224Z,42.07
2023-04-23T18:59:24.022Z,42.07
2023-04-23T19:01:56.983Z,42.09
2023-04-23T19:04:30.041Z,42.14
2023-04-23T19:07:02.911Z,42.19
2023-04-23T19:09:35.376Z,42.32
2023-04-23T19:12:08.305Z,42.39
2023-04-23T19:14:40.764Z,42.37
2023-04-23T19:17:13.049Z,42.41
2023-04-23T19:19:48.377Z,42.45
2023-04-23T19:22:22.281Z,42.53
2023-04-23T19:24:54.681Z,42.61
2023-04-23T19:27:27.055Z,42.68
2023-04-23T19:30:01.053Z,42.62
2023-04-23T19:32:34.394Z,42.73
2023-04-23T19:35:10.553Z,42.80
2023-04-23T19:37:42.955Z,42.86
2023-04-23T19:40:16.473Z,42.86
2023-04-23T19:42:48.927Z,43.00
2023-04-23T19:45:22.174Z,42.99
2023-04-23T19:47:54.745Z,43.04
2023-04-23T19:50:28.035Z,43.07
2023-04-23T19:53:00.689Z,43.14
2023-04-23T19:55:33.068Z,43.24
2023-04-23T19:58:06.828Z,43.25
2023-04-23T20:00:41.553Z,43.32
2023-04-23T20:03:14.585Z,43.41
2023-04-23T20:05:48.425Z,43.39
2023-04-23T20:08:29.494Z,43.45
2023-04-23T20:11:01.847Z,43.55
2023-04-23T20:13:34.324Z,43.55
2023-04-23T20:16:08.327Z,43.67
2023-04-23T20:18:40.813Z,43.65
2023-04-23T20:21:13.220Z,43.73
2023-04-23T20:23:45.729Z,43.86
2023-04-23T20:26:18.100Z,44.02
2023-04-23T20:28:50.901Z,44.06
2023-04-23T20:31:23.663Z,44.11
2023-04-23T20:33:56.572Z,44.12
2023-04-23T20:36:31.796Z,44.27
2023-04-23T20:39:05.598Z,44.42
2023-04-23T20:41:38.590Z,44.43
2023-04-23T20:44:12.234Z,44.51
2023-04-23T20:46:47.401Z,44.56
2023-04-23T20:49:19.861Z,44.60
2023-04-23T20:51:52.300Z,44.75
2023-04-23T20:54:27.570Z,44.80
2023-04-23T20:56:59.871Z,44.96
2023-04-23T20:59:32.275Z,44.97
2023-04-23T21:02:06.654Z,45.21
2023-04-23T21:04:39.541Z,45.34
2023-04-23T21:07:11.936Z,45.49
2023-04-23T21:09:44.608Z,45.56
2023-04-23T21:12:17.231Z,45.61
2023-04-23T21:14:49.669Z,45.80
2023-04-23T21:17:21.894Z,45.80
2023-04-23T21:19:54.366Z,45.96
2023-04-23T21:22:26.787Z,46.15
2023-04-23T21:24:59.070Z,46.36
2023-04-23T21:27:32.779Z,46.53
2023-04-23T21:30:13.809Z,46.49
2023-04-23T21:32:46.283Z,46.55
2023-04-23T21:35:18.951Z,46.69
2023-04-23T21:37:51.409Z,46.80
2023-04-23T21:40:23.963Z,46.78
2023-04-23T21:42:56.639Z,46.86
2023-04-23T21:45:29.185Z,47.05
2023-04-23T21:48:01.978Z,47.08
2023-04-23T21:50:35.014Z,47.28
2023-04-23T21:53:07.261Z,47.38
2023-04-23T21:55:39.641Z,47.32
2023-04-23T21:58:17.324Z,47.35
2023-04-23T22:00:50.289Z,47.43
2023-04-23T22:03:37.805Z,47.48
2023-04-23T22:06:13.071Z,47.54
2023-04-23T22:08:46.419Z,47.69
2023-04-23T22:11:19.354Z,47.79
2023-04-23T22:13:51.635Z,47.70
2023-04-23T22:16:28.811Z,47.84
2023-04-23T22:19:01.722Z,48.06
2023-04-23T22:21:34.151Z,47.87
2023-04-23T22:24:07.361Z,47.97
2023-04-23T22:26:40.279Z,48.09
2023-04-23T22:29:12.681Z,47.98
2023-04-23T22:31:45.294Z,48.07
2023-04-23T22:34:19.540Z,48.13
2023-04-23T22:36:51.990Z,48.40
2023-04-23T22:39:24.344Z,48.34
2023-04-23T22:41:56.964Z,48.44
2023-04-23T22:44:29.288Z,48.46
2023-04-23T22:47:01.691Z,48.53
2023-04-23T22:49:34.679Z,48.58
2023-04-23T22:52:08.813Z,48.62
2023-04-23T22:54:41.130Z,48.55
2023-04-23T22:57:13.886Z,48.57
2023-04-23T22:59:46.392Z,48.62
2023-04-23T23:02:19.037Z,48.66
2023-04-23T23:04:51.405Z,48.79
2023-04-23T23:07:23.684Z,48.79
2023-04-23T23:09:56.037Z,48.72
2023-04-23T23:12:28.423Z,48.82
2023-04-23T23:15:02.000Z,49.14
2023-04-23T23:17:34.426Z,49.01
2023-04-23T23:20:09.020Z,49.00
2023-04-23T23:22:41.608Z,49.02
2023-04-23T23:25:14.352Z,48.92
2023-04-23T23:27:46.789Z,49.05
2023-04-23T23:30:19.172Z,49.14
2023-04-23T23:32:52.170Z,49.09
2023-04-23T23:35:24.633Z,49.23
2023-04-23T23:37:58.028Z,49.35
2023-04-23T23:40:30.302Z,49.30
2023-04-23T23:43:02.657Z,49.37
2023-04-23T23:45:35.049Z,49.48
2023-04-23T23:48:07.663Z,49.53
2023-04-23T23:50:40.101Z,49.55
2023-04-23T23:53:12.526Z,49.49
2023-04-23T23:55:45.054Z,49.69
2023-04-23T23:58:17.699Z,49.61
